sensor_id;sensor_type;location;lat;lon;timestamp;pressure;altitude;pressure_sealevel;temperature;humidity
68594;BME280;55563;52.416;13.548;2023-06-14T00:00:54;101349.97;;;13.01;100.00
68594;BME280;55563;52.416;13.548;2023-06-14T00:02:57;101348.09;;;12.96;100.00
68594;BME280;55563;52.416;13.548;2023-06-14T00:04:58;101348.91;;;12.97;100.00
68594;BME280;55563;52.416;13.548;2023-06-14T00:07:00;101350.22;;;12.94;100.00
68594;BME280;55563;52.416;13.548;2023-06-14T00:09:00;101355.69;;;12.83;100.00
68594;BME280;55563;52.416;13.548;2023-06-14T00:11:01;101354.16;;;12.92;100.00
68594;BME280;55563;52.416;13.548;2023-06-14T00:13:03;101350.25;;;13.09;100.00
68594;BME280;55563;52.416;13.548;2023-06-14T00:15:06;101356.41;;;12.73;100.00
68594;BME280;55563;52.416;13.548;2023-06-14T00:17:06;101355.06;;;12.65;100.00
68594;BME280;55563;52.416;13.548;2023-06-14T00:19:08;101354.91;;;12.87;100.00
68594;BME280;55563;52.416;13.548;2023-06-14T00:21:10;101353.66;;;12.95;100.00
68594;BME280;55563;52.416;13.548;2023-06-14T00:23:11;101350.22;;;12.57;100.00
68594;BME280;55563;52.416;13.548;2023-06-14T00:25:12;101360.09;;;12.72;100.00
68594;BME280;55563;52.416;13.548;2023-06-14T00:27:12;101357.59;;;12.50;100.00
68594;BME280;55563;52.416;13.548;2023-06-14T00:29:13;101363.00;;;12.71;100.00
68594;BME280;55563;52.416;13.548;2023-06-14T00:31:14;101356.63;;;12.66;100.00
68594;BME280;55563;52.416;13.548;2023-06-14T00:33:14;101352.09;;;12.62;100.00
68594;BME280;55563;52.416;13.548;2023-06-14T00:35:17;101361.63;;;12.63;100.00
68594;BME280;55563;52.416;13.548;2023-06-14T00:37:18;101356.03;;;12.54;100.00
68594;BME280;55563;52.416;13.548;2023-06-14T00:39:19;101360.00;;;12.57;100.00
68594;BME280;55563;52.416;13.548;2023-06-14T00:41:19;101348.63;;;12.51;100.00
68594;BME280;55563;52.416;13.548;2023-06-14T00:43:20;101363.88;;;12.44;100.00
68594;BME280;55563;52.416;13.548;2023-06-14T00:45:21;101355.41;;;12.42;100.00
68594;BME280;55563;52.416;13.548;2023-06-14T00:47:22;101360.34;;;12.34;100.00
68594;BME280;55563;52.416;13.548;2023-06-14T00:49:23;101363.53;;;12.36;100.00
68594;BME280;55563;52.416;13.548;2023-06-14T00:51:24;101362.13;;;12.28;100.00
68594;BME280;55563;52.416;13.548;2023-06-14T00:53:25;101359.06;;;12.36;100.00
68594;BME280;55563;52.416;13.548;2023-06-14T00:55:26;101350.75;;;12.54;100.00
68594;BME280;55563;52.416;13.548;2023-06-14T00:57:29;101358.38;;;12.51;100.00
68594;BME280;55563;52.416;13.548;2023-06-14T00:59:30;101350.44;;;12.46;100.00
68594;BME280;55563;52.416;13.548;2023-06-14T01:01:31;101352.19;;;12.35;100.00
68594;BME280;55563;52.416;13.548;2023-06-14T01:03:34;101359.34;;;12.40;100.00
68594;BME280;55563;52.416;13.548;2023-06-14T01:05:35;101358.50;;;12.34;100.00
68594;BME280;55563;52.416;13.548;2023-06-14T01:08:24;101364.16;;;12.48;100.00
68594;BME280;55563;52.416;13.548;2023-06-14T01:10:26;101358.84;;;12.43;100.00
68594;BME280;55563;52.416;13.548;2023-06-14T01:12:41;101359.38;;;12.45;100.00
68594;BME280;55563;52.416;13.548;2023-06-14T01:14:47;101358.03;;;12.42;100.00
68594;BME280;55563;52.416;13.548;2023-06-14T01:16:49;101356.91;;;12.33;100.00
68594;BME280;55563;52.416;13.548;2023-06-14T01:18:55;101355.84;;;12.29;100.00
68594;BME280;55563;52.416;13.548;2023-06-14T01:20:58;101365.66;;;12.39;100.00
68594;BME280;55563;52.416;13.548;2023-06-14T01:22:59;101360.53;;;12.59;100.00
68594;BME280;55563;52.416;13.548;2023-06-14T01:25:00;101356.81;;;12.55;100.00
68594;BME280;55563;52.416;13.548;2023-06-14T01:27:01;101357.97;;;12.32;100.00
68594;BME280;55563;52.416;13.548;2023-06-14T01:29:03;101357.25;;;12.42;100.00
68594;BME280;55563;52.416;13.548;2023-06-14T01:31:04;101354.50;;;12.27;100.00
68594;BME280;55563;52.416;13.548;2023-06-14T01:33:07;101358.88;;;12.16;100.00
68594;BME280;55563;52.416;13.548;2023-06-14T01:35:08;101359.50;;;12.28;100.00
68594;BME280;55563;52.416;13.548;2023-06-14T01:37:10;101363.28;;;12.37;100.00
68594;BME280;55563;52.416;13.548;2023-06-14T01:39:14;101356.09;;;12.28;100.00
68594;BME280;55563;52.416;13.548;2023-06-14T01:41:16;101359.31;;;12.35;100.00
68594;BME280;55563;52.416;13.548;2023-06-14T01:43:19;101352.22;;;12.40;100.00
68594;BME280;55563;52.416;13.548;2023-06-14T01:45:21;101365.34;;;12.30;100.00
68594;BME280;55563;52.416;13.548;2023-06-14T01:47:23;101359.78;;;12.27;100.00
68594;BME280;55563;52.416;13.548;2023-06-14T01:49:25;101362.84;;;12.18;100.00
68594;BME280;55563;52.416;13.548;2023-06-14T01:51:27;101363.13;;;12.17;100.00
68594;BME280;55563;52.416;13.548;2023-06-14T01:53:28;101369.44;;;12.16;100.00
68594;BME280;55563;52.416;13.548;2023-06-14T01:55:29;101365.19;;;12.15;100.00
68594;BME280;55563;52.416;13.548;2023-06-14T01:57:30;101369.16;;;12.12;100.00
68594;BME280;55563;52.416;13.548;2023-06-14T01:59:30;101370.69;;;12.08;100.00
68594;BME280;55563;52.416;13.548;2023-06-14T02:01:32;101362.75;;;12.03;100.00
68594;BME280;55563;52.416;13.548;2023-06-14T02:03:35;101373.22;;;11.98;100.00
68594;BME280;55563;52.416;13.548;2023-06-14T02:05:38;101366.13;;;12.31;100.00
68594;BME280;55563;52.416;13.548;2023-06-14T02:07:40;101366.09;;;12.26;100.00
68594;BME280;55563;52.416;13.548;2023-06-14T02:09:41;101375.38;;;12.33;100.00
68594;BME280;55563;52.416;13.548;2023-06-14T02:11:42;101370.81;;;12.23;100.00
68594;BME280;55563;52.416;13.548;2023-06-14T02:13:43;101377.16;;;12.22;100.00
68594;BME280;55563;52.416;13.548;2023-06-14T02:15:44;101368.75;;;11.99;100.00
68594;BME280;55563;52.416;13.548;2023-06-14T02:17:46;101371.41;;;11.99;100.00
68594;BME280;55563;52.416;13.548;2023-06-14T02:19:51;101371.63;;;11.97;100.00
68594;BME280;55563;52.416;13.548;2023-06-14T02:21:51;101367.09;;;12.19;100.00
68594;BME280;55563;52.416;13.548;2023-06-14T02:23:52;101373.00;;;12.32;100.00
68594;BME280;55563;52.416;13.548;2023-06-14T02:25:54;101371.22;;;12.10;100.00
68594;BME280;55563;52.416;13.548;2023-06-14T02:27:55;101370.22;;;11.90;100.00
68594;BME280;55563;52.416;13.548;2023-06-14T02:29:56;101373.38;;;11.87;100.00
68594;BME280;55563;52.416;13.548;2023-06-14T02:31:57;101373.59;;;11.85;100.00
68594;BME280;55563;52.416;13.548;2023-06-14T02:33:58;101371.81;;;11.91;100.00
68594;BME280;55563;52.416;13.548;2023-06-14T02:35:59;101378.75;;;11.75;100.00
68594;BME280;55563;52.416;13.548;2023-06-14T02:38:00;101380.41;;;11.81;100.00
68594;BME280;55563;52.416;13.548;2023-06-14T02:40:01;101379.31;;;12.04;100.00
68594;BME280;55563;52.416;13.548;2023-06-14T02:42:05;101377.91;;;12.18;100.00
68594;BME280;55563;52.416;13.548;2023-06-14T02:44:06;101387.38;;;11.70;100.00
68594;BME280;55563;52.416;13.548;2023-06-14T02:46:07;101392.00;;;11.80;100.00
68594;BME280;55563;52.416;13.548;2023-06-14T02:48:07;101377.94;;;11.96;100.00
68594;BME280;55563;52.416;13.548;2023-06-14T02:50:08;101389.19;;;11.65;100.00
68594;BME280;55563;52.416;13.548;2023-06-14T02:52:09;101393.44;;;11.71;100.00
68594;BME280;55563;52.416;13.548;2023-06-14T02:54:10;101391.34;;;11.46;100.00
68594;BME280;55563;52.416;13.548;2023-06-14T02:56:13;101392.91;;;11.69;100.00
68594;BME280;55563;52.416;13.548;2023-06-14T02:58:14;101390.34;;;11.52;100.00
68594;BME280;55563;52.416;13.548;2023-06-14T03:00:16;101385.13;;;11.57;100.00
68594;BME280;55563;52.416;13.548;2023-06-14T03:02:20;101384.53;;;11.50;100.00
68594;BME280;55563;52.416;13.548;2023-06-14T03:04:21;101387.69;;;11.52;100.00
68594;BME280;55563;52.416;13.548;2023-06-14T03:06:22;101389.81;;;11.50;100.00
68594;BME280;55563;52.416;13.548;2023-06-14T03:08:26;101386.44;;;11.55;100.00
68594;BME280;55563;52.416;13.548;2023-06-14T03:10:31;101380.13;;;11.56;100.00
68594;BME280;55563;52.416;13.548;2023-06-14T03:12:33;101380.75;;;11.41;100.00
68594;BME280;55563;52.416;13.548;2023-06-14T03:14:34;101379.50;;;11.49;100.00
68594;BME280;55563;52.416;13.548;2023-06-14T03:16:38;101381.63;;;11.52;100.00
68594;BME280;55563;52.416;13.548;2023-06-14T03:18:41;101383.53;;;11.56;100.00
68594;BME280;55563;52.416;13.548;2023-06-14T03:20:42;101385.81;;;11.69;100.00
68594;BME280;55563;52.416;13.548;2023-06-14T03:22:43;101381.97;;;11.55;100.00
68594;BME280;55563;52.416;13.548;2023-06-14T03:24:46;101379.50;;;11.49;100.00
68594;BME280;55563;52.416;13.548;2023-06-14T03:26:49;101386.63;;;11.70;100.00
68594;BME280;55563;52.416;13.548;2023-06-14T03:28:49;101384.91;;;11.59;100.00
68594;BME280;55563;52.416;13.548;2023-06-14T03:30:51;101393.84;;;11.36;100.00
68594;BME280;55563;52.416;13.548;2023-06-14T03:32:52;101387.47;;;11.54;100.00
68594;BME280;55563;52.416;13.548;2023-06-14T03:34:54;101389.59;;;11.57;100.00
68594;BME280;55563;52.416;13.548;2023-06-14T03:36:57;101390.84;;;11.49;100.00
68594;BME280;55563;52.416;13.548;2023-06-14T03:38:58;101400.25;;;11.67;100.00
68594;BME280;55563;52.416;13.548;2023-06-14T03:40:59;101399.84;;;11.53;100.00
68594;BME280;55563;52.416;13.548;2023-06-14T03:43:00;101395.66;;;11.57;100.00
68594;BME280;55563;52.416;13.548;2023-06-14T03:45:00;101394.56;;;11.53;100.00
68594;BME280;55563;52.416;13.548;2023-06-14T03:47:02;101400.25;;;11.67;100.00
68594;BME280;55563;52.416;13.548;2023-06-14T03:49:03;101393.97;;;12.85;100.00
68594;BME280;55563;52.416;13.548;2023-06-14T03:51:04;101393.94;;;14.65;100.00
68594;BME280;55563;52.416;13.548;2023-06-14T03:53:05;101387.31;;;16.06;100.00
68594;BME280;55563;52.416;13.548;2023-06-14T03:55:06;101389.78;;;16.66;100.00
68594;BME280;55563;52.416;13.548;2023-06-14T03:57:08;101385.75;;;17.21;100.00
68594;BME280;55563;52.416;13.548;2023-06-14T03:59:09;101388.66;;;17.43;100.00
68594;BME280;55563;52.416;13.548;2023-06-14T04:01:10;101389.63;;;17.90;100.00
68594;BME280;55563;52.416;13.548;2023-06-14T04:03:13;101389.41;;;18.05;100.00
68594;BME280;55563;52.416;13.548;2023-06-14T04:05:15;101398.47;;;17.85;100.00
68594;BME280;55563;52.416;13.548;2023-06-14T04:07:21;101400.72;;;18.29;100.00
68594;BME280;55563;52.416;13.548;2023-06-14T04:09:23;101401.69;;;18.84;100.00
68594;BME280;55563;52.416;13.548;2023-06-14T04:11:25;101404.06;;;19.54;100.00
68594;BME280;55563;52.416;13.548;2023-06-14T04:13:27;101409.84;;;18.60;100.00
68594;BME280;55563;52.416;13.548;2023-06-14T04:15:28;101406.41;;;18.87;100.00
68594;BME280;55563;52.416;13.548;2023-06-14T04:17:30;101401.53;;;18.62;100.00
68594;BME280;55563;52.416;13.548;2023-06-14T04:19:30;101402.78;;;19.51;100.00
68594;BME280;55563;52.416;13.548;2023-06-14T04:21:31;101404.63;;;18.37;100.00
68594;BME280;55563;52.416;13.548;2023-06-14T04:23:37;101399.66;;;18.62;100.00
68594;BME280;55563;52.416;13.548;2023-06-14T04:25:38;101390.53;;;19.86;100.00
68594;BME280;55563;52.416;13.548;2023-06-14T04:27:39;101396.75;;;18.45;100.00
68594;BME280;55563;52.416;13.548;2023-06-14T04:29:40;101397.25;;;19.21;100.00
68594;BME280;55563;52.416;13.548;2023-06-14T04:31:46;101396.00;;;18.26;100.00
68594;BME280;55563;52.416;13.548;2023-06-14T04:33:48;101403.13;;;18.63;100.00
68594;BME280;55563;52.416;13.548;2023-06-14T04:35:54;101397.06;;;19.44;100.00
68594;BME280;55563;52.416;13.548;2023-06-14T04:37:57;101403.34;;;19.98;100.00
68594;BME280;55563;52.416;13.548;2023-06-14T04:39:58;101393.09;;;19.14;100.00
68594;BME280;55563;52.416;13.548;2023-06-14T04:41:59;101407.22;;;19.56;100.00
68594;BME280;55563;52.416;13.548;2023-06-14T04:44:02;101408.28;;;20.27;100.00
68594;BME280;55563;52.416;13.548;2023-06-14T04:46:07;101410.78;;;19.10;100.00
68594;BME280;55563;52.416;13.548;2023-06-14T04:48:12;101416.59;;;20.48;100.00
68594;BME280;55563;52.416;13.548;2023-06-14T04:50:13;101408.56;;;20.03;100.00
68594;BME280;55563;52.416;13.548;2023-06-14T04:52:14;101407.91;;;19.97;100.00
68594;BME280;55563;52.416;13.548;2023-06-14T04:54:18;101408.56;;;20.25;100.00
68594;BME280;55563;52.416;13.548;2023-06-14T04:56:20;101409.56;;;19.57;100.00
68594;BME280;55563;52.416;13.548;2023-06-14T04:58:22;101405.22;;;19.34;100.00
68594;BME280;55563;52.416;13.548;2023-06-14T05:00:23;101413.75;;;20.44;97.40
68594;BME280;55563;52.416;13.548;2023-06-14T05:02:24;101405.69;;;20.35;97.46
68594;BME280;55563;52.416;13.548;2023-06-14T05:04:27;101408.78;;;18.24;100.00
68594;BME280;55563;52.416;13.548;2023-06-14T05:06:28;101412.06;;;17.41;100.00
68594;BME280;55563;52.416;13.548;2023-06-14T05:08:29;101402.00;;;17.62;100.00
68594;BME280;55563;52.416;13.548;2023-06-14T05:10:31;101404.25;;;16.49;100.00
68594;BME280;55563;52.416;13.548;2023-06-14T05:12:32;101408.72;;;16.20;100.00
68594;BME280;55563;52.416;13.548;2023-06-14T05:14:33;101409.78;;;16.19;100.00
68594;BME280;55563;52.416;13.548;2023-06-14T05:16:34;101409.09;;;15.98;100.00
68594;BME280;55563;52.416;13.548;2023-06-14T05:18:35;101420.25;;;16.00;100.00
68594;BME280;55563;52.416;13.548;2023-06-14T05:20:36;101412.69;;;16.51;100.00
68594;BME280;55563;52.416;13.548;2023-06-14T05:22:38;101415.03;;;16.24;100.00
68594;BME280;55563;52.416;13.548;2023-06-14T05:24:39;101403.69;;;15.05;100.00
68594;BME280;55563;52.416;13.548;2023-06-14T05:26:40;101404.38;;;15.36;100.00
68594;BME280;55563;52.416;13.548;2023-06-14T05:28:41;101418.78;;;15.74;100.00
68594;BME280;55563;52.416;13.548;2023-06-14T05:30:42;101427.31;;;15.71;100.00
68594;BME280;55563;52.416;13.548;2023-06-14T05:32:43;101427.88;;;15.63;100.00
68594;BME280;55563;52.416;13.548;2023-06-14T05:34:43;101434.75;;;15.59;100.00
68594;BME280;55563;52.416;13.548;2023-06-14T05:36:44;101434.88;;;15.28;100.00
68594;BME280;55563;52.416;13.548;2023-06-14T05:38:45;101439.03;;;15.40;100.00
68594;BME280;55563;52.416;13.548;2023-06-14T05:40:46;101439.38;;;15.28;100.00
68594;BME280;55563;52.416;13.548;2023-06-14T05:42:47;101440.78;;;14.90;100.00
68594;BME280;55563;52.416;13.548;2023-06-14T05:44:48;101438.59;;;15.07;100.00
68594;BME280;55563;52.416;13.548;2023-06-14T05:46:48;101429.38;;;14.90;100.00
68594;BME280;55563;52.416;13.548;2023-06-14T05:48:49;101431.78;;;14.91;100.00
68594;BME280;55563;52.416;13.548;2023-06-14T05:50:50;101442.63;;;14.59;100.00
68594;BME280;55563;52.416;13.548;2023-06-14T05:52:51;101437.06;;;14.91;100.00
68594;BME280;55563;52.416;13.548;2023-06-14T05:54:52;101442.38;;;14.66;100.00
68594;BME280;55563;52.416;13.548;2023-06-14T05:56:52;101442.88;;;14.78;100.00
68594;BME280;55563;52.416;13.548;2023-06-14T05:58:53;101444.22;;;14.91;100.00
68594;BME280;55563;52.416;13.548;2023-06-14T06:00:54;101448.97;;;14.63;100.00
68594;BME280;55563;52.416;13.548;2023-06-14T06:02:54;101439.44;;;14.77;100.00
68594;BME280;55563;52.416;13.548;2023-06-14T06:04:58;101439.97;;;14.90;100.00
68594;BME280;55563;52.416;13.548;2023-06-14T06:06:58;101443.69;;;14.68;100.00
68594;BME280;55563;52.416;13.548;2023-06-14T06:08:59;101446.84;;;14.40;100.00
68594;BME280;55563;52.416;13.548;2023-06-14T06:11:01;101449.78;;;14.64;100.00
68594;BME280;55563;52.416;13.548;2023-06-14T06:13:02;101458.50;;;14.64;100.00
68594;BME280;55563;52.416;13.548;2023-06-14T06:15:03;101451.63;;;14.94;100.00
68594;BME280;55563;52.416;13.548;2023-06-14T06:17:05;101450.81;;;15.03;100.00
68594;BME280;55563;52.416;13.548;2023-06-14T06:19:05;101448.72;;;14.50;100.00
68594;BME280;55563;52.416;13.548;2023-06-14T06:21:06;101453.75;;;14.66;100.00
68594;BME280;55563;52.416;13.548;2023-06-14T06:23:07;101441.56;;;15.01;100.00
68594;BME280;55563;52.416;13.548;2023-06-14T06:25:09;101439.47;;;14.67;100.00
68594;BME280;55563;52.416;13.548;2023-06-14T06:27:10;101442.38;;;14.91;100.00
68594;BME280;55563;52.416;13.548;2023-06-14T06:29:10;101447.91;;;14.79;100.00
68594;BME280;55563;52.416;13.548;2023-06-14T06:31:14;101440.78;;;14.80;100.00
68594;BME280;55563;52.416;13.548;2023-06-14T06:33:15;101441.56;;;14.96;100.00
68594;BME280;55563;52.416;13.548;2023-06-14T06:35:16;101442.34;;;14.96;100.00
68594;BME280;55563;52.416;13.548;2023-06-14T06:37:17;101452.41;;;14.84;100.00
68594;BME280;55563;52.416;13.548;2023-06-14T06:39:18;101441.81;;;14.99;100.00
68594;BME280;55563;52.416;13.548;2023-06-14T06:41:18;101442.59;;;15.15;100.00
68594;BME280;55563;52.416;13.548;2023-06-14T06:43:19;101445.69;;;15.37;100.00
68594;BME280;55563;52.416;13.548;2023-06-14T06:45:22;101452.81;;;15.42;100.00
68594;BME280;55563;52.416;13.548;2023-06-14T06:47:23;101462.63;;;15.51;100.00
68594;BME280;55563;52.416;13.548;2023-06-14T06:49:25;101459.16;;;15.56;100.00
68594;BME280;55563;52.416;13.548;2023-06-14T06:51:26;101453.06;;;15.50;100.00
68594;BME280;55563;52.416;13.548;2023-06-14T06:53:26;101454.69;;;15.41;100.00
68594;BME280;55563;52.416;13.548;2023-06-14T06:55:27;101455.72;;;15.45;100.00
68594;BME280;55563;52.416;13.548;2023-06-14T06:57:28;101449.31;;;15.66;100.00
68594;BME280;55563;52.416;13.548;2023-06-14T06:59:29;101450.56;;;15.79;100.00
68594;BME280;55563;52.416;13.548;2023-06-14T07:01:30;101457.88;;;16.02;100.00
68594;BME280;55563;52.416;13.548;2023-06-14T07:03:34;101455.50;;;16.01;100.00
68594;BME280;55563;52.416;13.548;2023-06-14T07:05:34;101456.50;;;16.15;100.00
68594;BME280;55563;52.416;13.548;2023-06-14T07:07:35;101460.38;;;16.28;100.00
68594;BME280;55563;52.416;13.548;2023-06-14T07:09:36;101459.66;;;16.12;100.00
68594;BME280;55563;52.416;13.548;2023-06-14T07:11:36;101466.09;;;16.06;100.00
68594;BME280;55563;52.416;13.548;2023-06-14T07:13:37;101466.34;;;16.48;100.00
68594;BME280;55563;52.416;13.548;2023-06-14T07:15:38;101475.69;;;16.36;100.00
68594;BME280;55563;52.416;13.548;2023-06-14T07:17:39;101474.91;;;16.74;100.00
68594;BME280;55563;52.416;13.548;2023-06-14T07:19:40;101469.75;;;16.88;100.00
68594;BME280;55563;52.416;13.548;2023-06-14T07:21:43;101480.88;;;16.90;100.00
68594;BME280;55563;52.416;13.548;2023-06-14T07:23:44;101485.47;;;17.08;100.00
68594;BME280;55563;52.416;13.548;2023-06-14T07:25:44;101485.09;;;16.96;100.00
68594;BME280;55563;52.416;13.548;2023-06-14T07:27:46;101486.22;;;16.85;100.00
68594;BME280;55563;52.416;13.548;2023-06-14T07:29:46;101486.28;;;16.80;100.00
68594;BME280;55563;52.416;13.548;2023-06-14T07:31:47;101483.53;;;16.90;100.00
68594;BME280;55563;52.416;13.548;2023-06-14T07:33:48;101483.00;;;16.59;100.00
68594;BME280;55563;52.416;13.548;2023-06-14T07:35:56;101487.41;;;16.74;100.00
68594;BME280;55563;52.416;13.548;2023-06-14T07:37:57;101486.22;;;16.85;100.00
68594;BME280;55563;52.416;13.548;2023-06-14T07:39:58;101490.56;;;16.76;100.00
68594;BME280;55563;52.416;13.548;2023-06-14T07:41:59;101488.22;;;16.98;100.00
68594;BME280;55563;52.416;13.548;2023-06-14T07:43:59;101485.47;;;16.79;100.00
68594;BME280;55563;52.416;13.548;2023-06-14T07:46:00;101482.69;;;16.66;100.00
68594;BME280;55563;52.416;13.548;2023-06-14T07:48:03;101484.91;;;16.87;100.00
68594;BME280;55563;52.416;13.548;2023-06-14T07:50:05;101475.31;;;16.91;100.00
68594;BME280;55563;52.416;13.548;2023-06-14T07:52:08;101480.66;;;16.86;100.00
68594;BME280;55563;52.416;13.548;2023-06-14T07:54:08;101476.53;;;16.99;100.00
68594;BME280;55563;52.416;13.548;2023-06-14T07:56:09;101480.84;;;16.95;100.00
68594;BME280;55563;52.416;13.548;2023-06-14T07:58:10;101478.66;;;17.02;100.00
68594;BME280;55563;52.416;13.548;2023-06-14T08:00:11;101473.03;;;17.04;100.00
68594;BME280;55563;52.416;13.548;2023-06-14T08:02:15;101471.63;;;16.87;100.00
68594;BME280;55563;52.416;13.548;2023-06-14T08:04:16;101466.50;;;16.96;100.00
68594;BME280;55563;52.416;13.548;2023-06-14T08:06:17;101470.91;;;17.06;100.00
68594;BME280;55563;52.416;13.548;2023-06-14T08:08:18;101468.31;;;17.00;100.00
68594;BME280;55563;52.416;13.548;2023-06-14T08:10:18;101476.59;;;16.94;100.00
68594;BME280;55563;52.416;13.548;2023-06-14T08:12:19;101473.28;;;17.07;100.00
68594;BME280;55563;52.416;13.548;2023-06-14T08:14:20;101470.91;;;17.06;100.00
68594;BME280;55563;52.416;13.548;2023-06-14T08:16:20;101478.47;;;17.17;100.00
68594;BME280;55563;52.416;13.548;2023-06-14T08:18:21;101471.88;;;17.38;100.00
68594;BME280;55563;52.416;13.548;2023-06-14T08:20:22;101478.06;;;17.34;100.00
68594;BME280;55563;52.416;13.548;2023-06-14T08:22:23;101470.03;;;17.39;100.00
68594;BME280;55563;52.416;13.548;2023-06-14T08:24:25;101459.44;;;17.58;100.00
68594;BME280;55563;52.416;13.548;2023-06-14T08:26:27;101454.31;;;17.42;100.00
68594;BME280;55563;52.416;13.548;2023-06-14T08:28:29;101457.56;;;17.58;100.00
68594;BME280;55563;52.416;13.548;2023-06-14T08:30:30;101460.13;;;17.44;100.00
68594;BME280;55563;52.416;13.548;2023-06-14T08:32:31;101471.38;;;17.60;100.00
68594;BME280;55563;52.416;13.548;2023-06-14T08:34:31;101463.75;;;17.54;100.00
68594;BME280;55563;52.416;13.548;2023-06-14T08:36:32;101463.19;;;17.33;100.00
68594;BME280;55563;52.416;13.548;2023-06-14T08:38:33;101483.63;;;17.61;100.00
68594;BME280;55563;52.416;13.548;2023-06-14T08:40:36;101475.16;;;17.59;100.00
68594;BME280;55563;52.416;13.548;2023-06-14T08:42:38;101476.91;;;17.88;100.00
68594;BME280;55563;52.416;13.548;2023-06-14T08:44:39;101486.44;;;18.12;100.00
68594;BME280;55563;52.416;13.548;2023-06-14T08:46:40;101485.97;;;17.86;100.00
68594;BME280;55563;52.416;13.548;2023-06-14T08:48:42;101484.09;;;18.06;100.00
68594;BME280;55563;52.416;13.548;2023-06-14T08:50:45;101485.31;;;18.32;100.00
68594;BME280;55563;52.416;13.548;2023-06-14T08:52:48;101486.97;;;18.28;100.00
68594;BME280;55563;52.416;13.548;2023-06-14T08:54:53;101490.69;;;17.90;100.00
68594;BME280;55563;52.416;13.548;2023-06-14T08:56:54;101486.63;;;17.97;100.00
68594;BME280;55563;52.416;13.548;2023-06-14T08:58:58;101488.28;;;17.93;100.00
68594;BME280;55563;52.416;13.548;2023-06-14T09:01:01;101487.72;;;18.15;100.00
68594;BME280;55563;52.416;13.548;2023-06-14T09:03:02;101489.03;;;17.75;100.00
68594;BME280;55563;52.416;13.548;2023-06-14T09:05:04;101482.38;;;17.96;100.00
68594;BME280;55563;52.416;13.548;2023-06-14T09:07:06;101484.09;;;18.06;100.00
68594;BME280;55563;52.416;13.548;2023-06-14T09:09:07;101490.88;;;17.98;100.00
68594;BME280;55563;52.416;13.548;2023-06-14T09:11:08;101483.69;;;18.17;100.00
68594;BME280;55563;52.416;13.548;2023-06-14T09:13:09;101481.25;;;18.21;100.00
68594;BME280;55563;52.416;13.548;2023-06-14T09:15:10;101485.31;;;18.32;100.00
68594;BME280;55563;52.416;13.548;2023-06-14T09:17:13;101480.06;;;18.08;100.00
68594;BME280;55563;52.416;13.548;2023-06-14T09:19:21;101485.25;;;18.37;100.00
68594;BME280;55563;52.416;13.548;2023-06-14T09:21:22;101479.75;;;18.47;100.00
68594;BME280;55563;52.416;13.548;2023-06-14T09:23:23;101490.34;;;18.71;100.00
68594;BME280;55563;52.416;13.548;2023-06-14T09:25:23;101487.47;;;18.67;100.00
68594;BME280;55563;52.416;13.548;2023-06-14T09:27:26;101492.13;;;18.76;100.00
68594;BME280;55563;52.416;13.548;2023-06-14T09:29:27;101488.75;;;19.02;100.00
68594;BME280;55563;52.416;13.548;2023-06-14T09:31:28;101492.56;;;18.96;100.00
68594;BME280;55563;52.416;13.548;2023-06-14T09:33:32;101491.00;;;19.09;100.00
68594;BME280;55563;52.416;13.548;2023-06-14T09:35:33;101489.00;;;18.87;100.00
68594;BME280;55563;52.416;13.548;2023-06-14T09:37:34;101492.47;;;18.88;100.00
68594;BME280;55563;52.416;13.548;2023-06-14T09:39:35;101499.44;;;18.70;100.00
68594;BME280;55563;52.416;13.548;2023-06-14T09:41:38;101486.19;;;18.65;100.00
68594;BME280;55563;52.416;13.548;2023-06-14T09:43:40;101484.91;;;18.76;100.00
68594;BME280;55563;52.416;13.548;2023-06-14T09:45:41;101480.31;;;18.95;100.00
68594;BME280;55563;52.416;13.548;2023-06-14T09:47:46;101490.00;;;19.05;100.00
68594;BME280;55563;52.416;13.548;2023-06-14T09:49:48;101488.41;;;18.90;100.00
68594;BME280;55563;52.416;13.548;2023-06-14T09:51:51;101488.22;;;19.00;100.00
68594;BME280;55563;52.416;13.548;2023-06-14T09:53:59;101488.22;;;19.00;100.00
68594;BME280;55563;52.416;13.548;2023-06-14T09:56:00;101490.63;;;19.15;100.00
68594;BME280;55563;52.416;13.548;2023-06-14T09:58:04;101488.22;;;18.87;100.00
68594;BME280;55563;52.416;13.548;2023-06-14T10:00:06;101482.34;;;19.31;100.00
68594;BME280;55563;52.416;13.548;2023-06-14T10:02:38;101480.19;;;19.33;100.00
68594;BME280;55563;52.416;13.548;2023-06-14T10:05:07;101478.50;;;19.37;100.00
68594;BME280;55563;52.416;13.548;2023-06-14T10:07:10;101477.72;;;19.36;100.00
68594;BME280;55563;52.416;13.548;2023-06-14T10:09:11;101479.50;;;19.41;100.00
68594;BME280;55563;52.416;13.548;2023-06-14T10:11:13;101479.63;;;19.49;100.00
68594;BME280;55563;52.416;13.548;2023-06-14T10:13:15;101471.78;;;19.67;100.00
68594;BME280;55563;52.416;13.548;2023-06-14T10:15:23;101484.13;;;19.22;100.00
68594;BME280;55563;52.416;13.548;2023-06-14T10:17:44;101478.41;;;19.83;100.00
68594;BME280;55563;52.416;13.548;2023-06-14T10:22:14;101478.81;;;19.63;100.00
68594;BME280;55563;52.416;13.548;2023-06-14T10:24:18;101479.22;;;19.56;100.00